Time;durP1;ratioP1;P1;durP2;ratioP2;P2;SDS_P1;SDS_P2;PMS_P1;PMS_P2;Temp;Humidity;BMP_temperature;BMP_pressure;BME280_temperature;BME280_humidity;BME280_pressure;Samples;Min_cycle;Max_cycle;Signal;HPM_P1;HPM_P2
2023/12/01 00:00:21;;;;;;;70.30;27.25;;;2.00;99.90;;;;;;5034832;28;20702;-81
2023/12/01 00:02:47;;;;;;;69.50;26.50;;;2.10;99.90;;;;;;5034770;28;20181;-81
2023/12/01 00:05:12;;;;;;;60.67;25.47;;;2.10;99.90;;;;;;5017582;28;20230;-81
2023/12/01 00:07:38;;;;;;;64.00;25.70;;;2.10;99.90;;;;;;5021073;28;20173;-81
2023/12/01 00:10:08;;;;;;;73.60;28.30;;;2.10;99.90;;;;;;5038851;28;20705;-81
2023/12/01 00:12:34;;;;;;;55.42;24.30;;;2.10;99.90;;;;;;5020633;28;20177;-81
2023/12/01 00:14:59;;;;;;;62.20;25.87;;;2.10;99.90;;;;;;5038684;28;20195;-81
2023/12/01 00:17:25;;;;;;;66.63;27.73;;;2.10;99.90;;;;;;5039367;28;20196;-81
2023/12/01 00:19:51;;;;;;;66.27;26.37;;;2.00;99.90;;;;;;5038647;28;20172;-81
2023/12/01 00:22:16;;;;;;;61.30;26.07;;;2.00;99.90;;;;;;5038683;28;20720;-81
2023/12/01 00:24:42;;;;;;;60.70;27.10;;;2.00;99.90;;;;;;5038324;28;20533;-81
2023/12/01 00:27:07;;;;;;;71.03;27.33;;;2.10;99.90;;;;;;5038501;28;20513;-81
2023/12/01 00:29:33;;;;;;;63.47;25.50;;;2.00;99.90;;;;;;5038127;28;20248;-81
2023/12/01 00:31:59;;;;;;;57.47;25.40;;;2.10;99.90;;;;;;5020522;28;20188;-81
2023/12/01 00:34:24;;;;;;;55.10;23.50;;;2.10;99.90;;;;;;5020577;28;20587;-81
2023/12/01 00:36:51;;;;;;;56.13;24.07;;;2.00;99.90;;;;;;5038048;28;20172;-81
2023/12/01 00:39:16;;;;;;;53.08;23.70;;;2.00;99.90;;;;;;5038381;28;20274;-81
2023/12/01 00:41:42;;;;;;;61.43;21.80;;;2.00;99.90;;;;;;5020188;28;20192;-81
2023/12/01 00:44:10;;;;;;;51.93;20.90;;;1.90;99.90;;;;;;5038235;28;20429;-81
2023/12/01 00:46:39;;;;;;;42.03;16.92;;;2.00;99.90;;;;;;5037641;28;20188;-81
2023/12/01 00:49:05;;;;;;;45.42;18.75;;;2.00;99.90;;;;;;5020165;28;20168;-81
2023/12/01 00:51:30;;;;;;;43.10;17.67;;;2.00;99.90;;;;;;5037880;28;20174;-81
2023/12/01 00:53:56;;;;;;;44.00;18.90;;;2.00;99.90;;;;;;5019960;28;20196;-81
2023/12/01 00:56:22;;;;;;;43.53;18.23;;;2.00;99.90;;;;;;5037557;28;20183;-81
2023/12/01 00:58:47;;;;;;;45.83;17.50;;;1.90;99.90;;;;;;5037661;28;20253;-81
2023/12/01 01:01:14;;;;;;;43.13;18.50;;;1.90;99.90;;;;;;5037569;28;20173;-81
2023/12/01 01:03:40;;;;;;;42.70;18.33;;;1.80;99.90;;;;;;5037613;28;20431;-81
2023/12/01 01:06:06;;;;;;;46.80;18.73;;;1.70;99.90;;;;;;5037413;28;20162;-81
2023/12/01 01:08:31;;;;;;;42.20;17.85;;;1.60;99.90;;;;;;5019321;28;20171;-81
2023/12/01 01:10:57;;;;;;;40.47;18.30;;;1.60;99.90;;;;;;5036721;28;20178;-81
2023/12/01 01:13:26;;;;;;;47.67;18.55;;;1.60;99.90;;;;;;5037065;28;20212;-81
2023/12/01 01:15:52;;;;;;;42.20;18.30;;;1.50;99.90;;;;;;5019808;28;20223;-81
2023/12/01 01:18:21;;;;;;;41.80;17.77;;;1.50;99.90;;;;;;5037033;28;20280;-81
2023/12/01 01:20:50;;;;;;;39.17;16.02;;;1.40;99.90;;;;;;5037169;28;20537;-82
2023/12/01 01:23:16;;;;;;;40.55;18.38;;;1.50;99.90;;;;;;5036965;28;20155;-81
2023/12/01 01:25:45;;;;;;;49.83;19.30;;;1.40;99.90;;;;;;5018969;28;20167;-81
2023/12/01 01:28:11;;;;;;;41.95;18.15;;;1.30;99.90;;;;;;5008530;28;20190;-81
2023/12/01 01:30:37;;;;;;;46.65;17.50;;;1.20;99.90;;;;;;5036504;28;20164;-82
2023/12/01 01:33:15;;;;;;;42.50;17.87;;;1.20;99.90;;;;;;5036677;28;20659;-81
2023/12/01 01:35:40;;;;;;;42.70;19.17;;;1.20;99.90;;;;;;5036615;28;20590;-82
2023/12/01 01:38:07;;;;;;;44.77;18.80;;;1.30;99.90;;;;;;5036451;28;20219;-82
2023/12/01 01:40:32;;;;;;;48.10;20.35;;;1.30;99.90;;;;;;5036204;28;20255;-82
2023/12/01 01:42:59;;;;;;;44.93;18.70;;;1.40;99.90;;;;;;5018237;28;20624;-81
2023/12/01 01:45:24;;;;;;;48.67;19.25;;;1.30;99.90;;;;;;5036340;28;20180;-81
2023/12/01 01:47:52;;;;;;;46.60;18.70;;;1.30;99.90;;;;;;5018656;28;20253;-81
2023/12/01 01:50:18;;;;;;;49.45;21.23;;;1.20;99.90;;;;;;5035989;28;20656;-81
2023/12/01 01:52:44;;;;;;;51.20;20.33;;;1.20;99.90;;;;;;5036354;28;20171;-81
2023/12/01 01:55:12;;;;;;;49.93;19.77;;;1.20;99.90;;;;;;5036283;28;20514;-81
2023/12/01 01:57:42;;;;;;;51.60;21.55;;;1.30;99.90;;;;;;5036683;28;20507;-82
2023/12/01 02:00:08;;;;;;;48.72;19.58;;;1.30;99.90;;;;;;5036169;28;20171;-81
2023/12/01 02:02:35;;;;;;;46.53;19.52;;;1.30;99.90;;;;;;5017905;28;20536;-81
2023/12/01 02:05:01;;;;;;;46.40;19.00;;;1.40;99.90;;;;;;5035921;28;20188;-81
2023/12/01 02:07:27;;;;;;;49.20;21.40;;;1.50;99.90;;;;;;5018443;28;20171;-81
2023/12/01 02:09:56;;;;;;;50.97;21.15;;;1.50;99.90;;;;;;5035679;28;20260;-81
2023/12/01 02:12:22;;;;;;;51.47;20.35;;;1.60;99.90;;;;;;5035440;28;20165;-81
2023/12/01 02:14:48;;;;;;;51.30;22.80;;;1.60;99.90;;;;;;5035772;28;20180;-81
2023/12/01 02:17:13;;;;;;;52.30;20.10;;;1.70;99.90;;;;;;5035821;28;20173;-82
2023/12/01 02:19:39;;;;;;;49.83;21.63;;;1.70;99.90;;;;;;5035289;28;20195;-82
2023/12/01 02:22:05;;;;;;;48.90;20.70;;;1.70;99.90;;;;;;5035927;28;20160;-81
2023/12/01 02:24:31;;;;;;;58.35;23.10;;;1.70;99.90;;;;;;5017620;28;20194;-82
2023/12/01 02:26:57;;;;;;;58.70;22.50;;;1.70;99.90;;;;;;5017856;28;20170;-82
2023/12/01 02:29:22;;;;;;;56.90;21.67;;;1.70;99.90;;;;;;5035135;28;20418;-81
2023/12/01 02:31:48;;;;;;;53.33;21.60;;;1.80;99.90;;;;;;5036318;28;20161;-81
2023/12/01 02:34:14;;;;;;;48.00;18.97;;;1.80;99.90;;;;;;5035534;28;20250;-82
2023/12/01 02:36:39;;;;;;;53.83;21.40;;;1.80;99.90;;;;;;5017535;28;20173;-81
2023/12/01 02:39:07;;;;;;;54.07;21.17;;;1.80;99.90;;;;;;5035510;28;20237;-82
2023/12/01 02:41:33;;;;;;;61.17;23.88;;;1.80;99.90;;;;;;5035301;28;20156;-81
2023/12/01 02:43:58;;;;;;;67.17;22.90;;;1.70;99.90;;;;;;5017331;28;20680;-81
2023/12/01 02:46:24;;;;;;;48.73;21.40;;;1.70;99.90;;;;;;5034613;28;20231;-82
2023/12/01 02:48:50;;;;;;;57.83;22.17;;;1.80;99.90;;;;;;5035562;28;20180;-81
2023/12/01 02:51:16;;;;;;;55.17;24.58;;;1.80;99.90;;;;;;5035728;28;20167;-82
2023/12/01 02:53:42;;;;;;;59.47;24.00;;;1.70;99.90;;;;;;5035099;28;20227;-81
2023/12/01 02:56:08;;;;;;;55.15;22.73;;;1.70;99.90;;;;;;5035200;28;20249;-81
2023/12/01 02:58:34;;;;;;;57.90;23.58;;;1.80;99.90;;;;;;5034797;28;20274;-81
2023/12/01 03:01:00;;;;;;;52.53;22.80;;;1.90;99.90;;;;;;5035075;28;20199;-81
2023/12/01 03:03:25;;;;;;;52.30;22.80;;;1.80;99.90;;;;;;5035118;28;20203;-82
2023/12/01 03:05:51;;;;;;;52.17;21.70;;;1.80;99.90;;;;;;5016949;28;20456;-81
2023/12/01 03:08:17;;;;;;;54.03;23.00;;;1.80;99.90;;;;;;5017172;28;20175;-81
2023/12/01 03:10:43;;;;;;;59.15;23.08;;;1.80;99.90;;;;;;5017002;28;20171;-81
2023/12/01 03:13:08;;;;;;;57.43;22.60;;;1.80;99.90;;;;;;5017115;28;20171;-82
2023/12/01 03:15:34;;;;;;;49.87;22.37;;;1.80;99.90;;;;;;5035413;28;20175;-82
2023/12/01 03:18:00;;;;;;;46.23;18.20;;;1.60;99.90;;;;;;5034896;28;20195;-81
2023/12/01 03:20:27;;;;;;;48.63;21.43;;;1.40;99.90;;;;;;5034843;28;20457;-82
2023/12/01 03:22:54;;;;;;;43.28;16.83;;;1.30;99.90;;;;;;5034665;28;20402;-82
2023/12/01 03:25:19;;;;;;;45.63;18.48;;;1.10;99.90;;;;;;5034588;28;20200;-81
2023/12/01 03:27:48;;;;;;;44.47;17.43;;;1.00;99.90;;;;;;5034888;28;20167;-81
2023/12/01 03:30:16;;;;;;;45.67;19.85;;;1.00;99.90;;;;;;5035099;28;20409;-82
2023/12/01 03:32:44;;;;;;;43.88;17.77;;;1.00;99.90;;;;;;5034622;28;20175;-82
2023/12/01 03:35:13;;;;;;;48.13;19.42;;;1.00;99.90;;;;;;5034612;28;20198;-82
2023/12/01 03:37:40;;;;;;;43.17;18.05;;;0.90;99.90;;;;;;5034300;28;20166;-81
2023/12/01 03:40:12;;;;;;;45.90;17.95;;;0.80;99.90;;;;;;5034149;28;20170;-84
2023/12/01 03:42:39;;;;;;;44.97;18.70;;;0.80;99.90;;;;;;5034985;28;20155;-82
2023/12/01 03:45:12;;;;;;;51.92;19.80;;;0.80;99.90;;;;;;5034916;28;20683;-82
2023/12/01 03:47:43;;;;;;;47.72;19.50;;;0.90;99.90;;;;;;5034694;28;20186;-82
2023/12/01 03:50:12;;;;;;;50.00;19.42;;;0.90;99.90;;;;;;5035220;28;20298;-82
2023/12/01 03:52:42;;;;;;;44.88;17.65;;;0.90;99.90;;;;;;5016542;28;20646;-82
2023/12/01 03:55:10;;;;;;;43.42;17.70;;;0.90;99.90;;;;;;5034549;28;20179;-82
2023/12/01 03:57:37;;;;;;;45.58;17.88;;;0.80;99.90;;;;;;5034381;28;20680;-82
2023/12/01 04:00:07;;;;;;;49.63;17.98;;;0.90;99.90;;;;;;5016505;28;20649;-82
2023/12/01 04:02:38;;;;;;;45.33;18.58;;;0.80;99.90;;;;;;5016668;28;20156;-82
2023/12/01 04:05:06;;;;;;;46.88;19.38;;;0.70;99.90;;;;;;5016502;28;20200;-82
2023/12/01 04:07:32;;;;;;;49.53;19.10;;;0.70;99.90;;;;;;5034290;28;20164;-82
2023/12/01 04:09:58;;;;;;;48.15;20.15;;;0.80;99.90;;;;;;5034651;28;20167;-82
2023/12/01 04:12:24;;;;;;;44.93;18.27;;;0.70;99.90;;;;;;5034275;28;20167;-82
2023/12/01 04:14:49;;;;;;;44.27;19.23;;;0.80;99.90;;;;;;5034313;28;20221;-82
2023/12/01 04:17:15;;;;;;;48.47;19.43;;;0.80;99.90;;;;;;5034434;28;20166;-82
2023/12/01 04:19:41;;;;;;;46.03;19.13;;;0.90;99.90;;;;;;5016512;28;20195;-82
2023/12/01 04:22:07;;;;;;;43.90;18.27;;;1.00;99.90;;;;;;5034158;28;20501;-82
2023/12/01 04:24:34;;;;;;;52.17;19.92;;;0.90;99.90;;;;;;5034056;28;20183;-82
2023/12/01 04:27:03;;;;;;;37.97;16.63;;;0.90;99.90;;;;;;5034213;28;20230;-82
2023/12/01 04:29:31;;;;;;;44.67;16.98;;;0.80;99.90;;;;;;5034528;28;20172;-82
2023/12/01 04:31:57;;;;;;;46.65;18.83;;;0.80;99.90;;;;;;5034116;28;20175;-82
2023/12/01 04:34:26;;;;;;;42.80;18.07;;;0.80;99.90;;;;;;5015843;28;20191;-82
2023/12/01 04:36:54;;;;;;;48.88;19.75;;;0.80;99.90;;;;;;5034324;28;20406;-82
2023/12/01 04:39:21;;;;;;;42.78;17.88;;;0.80;99.90;;;;;;5033927;28;20691;-82
2023/12/01 04:41:50;;;;;;;47.97;18.15;;;0.80;99.90;;;;;;5016613;28;20226;-82
2023/12/01 04:44:16;;;;;;;44.40;16.83;;;0.80;99.90;;;;;;5033945;28;20191;-82
2023/12/01 04:46:42;;;;;;;43.53;17.70;;;0.80;99.90;;;;;;5034381;28;20174;-82
2023/12/01 04:49:10;;;;;;;44.70;19.27;;;0.70;99.90;;;;;;5033947;28;20273;-82
2023/12/01 04:51:36;;;;;;;51.72;18.05;;;0.80;99.90;;;;;;5017444;28;20183;-82
2023/12/01 04:54:05;;;;;;;45.17;18.40;;;0.80;99.90;;;;;;5037659;28;20197;-82
2023/12/01 04:56:31;;;;;;;43.47;18.65;;;0.80;99.90;;;;;;5037445;28;20645;-82
2023/12/01 04:58:57;;;;;;;45.55;18.55;;;0.90;99.90;;;;;;5037640;28;20263;-82
2023/12/01 05:01:22;;;;;;;42.83;16.83;;;0.90;99.90;;;;;;5019557;28;20166;-82
2023/12/01 05:03:48;;;;;;;45.30;19.47;;;0.80;99.90;;;;;;5037368;28;20190;-82
2023/12/01 05:06:14;;;;;;;44.93;17.70;;;0.80;99.90;;;;;;5019541;28;20166;-82
2023/12/01 05:08:39;;;;;;;46.47;19.40;;;0.80;99.90;;;;;;5037342;28;20194;-82
2023/12/01 05:11:05;;;;;;;43.10;16.83;;;0.80;99.90;;;;;;5019532;28;20179;-82
2023/12/01 05:13:31;;;;;;;49.00;19.10;;;0.80;99.90;;;;;;5019311;28;20196;-82
2023/12/01 05:15:57;;;;;;;50.03;19.40;;;0.80;99.90;;;;;;5037275;28;20404;-82
2023/12/01 05:18:22;;;;;;;46.27;18.80;;;0.80;99.90;;;;;;5037218;28;20197;-82
2023/12/01 05:20:48;;;;;;;49.17;19.17;;;0.70;99.90;;;;;;5037422;28;20167;-82
2023/12/01 05:23:14;;;;;;;46.83;19.30;;;0.70;99.90;;;;;;5036972;28;20160;-82
2023/12/01 05:25:43;;;;;;;48.15;18.20;;;0.70;99.90;;;;;;5036803;28;20440;-82
2023/12/01 05:28:10;;;;;;;45.03;20.02;;;0.80;99.90;;;;;;5036669;28;20161;-83
2023/12/01 05:30:41;;;;;;;45.30;19.40;;;0.80;99.90;;;;;;5036535;28;20174;-82
2023/12/01 05:33:07;;;;;;;56.17;20.83;;;0.80;99.90;;;;;;5037002;28;20209;-82
2023/12/01 05:35:35;;;;;;;48.13;19.30;;;0.80;99.90;;;;;;5019126;28;20175;-82
2023/12/01 05:38:04;;;;;;;45.08;18.38;;;0.80;99.90;;;;;;5036958;28;20450;-82
2023/12/01 05:40:34;;;;;;;54.35;21.33;;;0.80;99.90;;;;;;5018898;28;20245;-82
2023/12/01 05:43:00;;;;;;;51.75;19.80;;;0.90;99.90;;;;;;5036345;28;20156;-82
2023/12/01 05:45:27;;;;;;;48.97;19.75;;;0.90;99.90;;;;;;5036158;28;20179;-83
2023/12/01 05:47:54;;;;;;;49.92;18.52;;;0.90;99.90;;;;;;5036669;28;20184;-82
2023/12/01 05:50:27;;;;;;;45.25;18.35;;;0.90;99.90;;;;;;5036017;28;20179;-82
2023/12/01 05:52:56;;;;;;;45.95;19.50;;;1.00;99.90;;;;;;5018341;28;20175;-83
2023/12/01 05:55:24;;;;;;;46.85;17.77;;;0.90;99.90;;;;;;5018230;28;20563;-82
2023/12/01 05:57:51;;;;;;;44.85;18.63;;;1.00;99.90;;;;;;5017983;28;20210;-82
2023/12/01 06:00:20;;;;;;;46.05;17.83;;;0.90;99.90;;;;;;5017999;28;20163;-82
2023/12/01 06:02:47;;;;;;;41.05;16.17;;;0.90;99.90;;;;;;5035079;28;20185;-82
2023/12/01 06:05:20;;;;;;;43.50;15.73;;;0.90;99.90;;;;;;5017705;28;20238;-83
2023/12/01 06:07:49;;;;;;;45.05;15.82;;;0.90;99.90;;;;;;5035840;28;20155;-83
2023/12/01 06:10:16;;;;;;;41.58;16.45;;;0.80;99.90;;;;;;5035846;28;20194;-82
2023/12/01 06:12:42;;;;;;;45.22;16.35;;;0.80;99.90;;;;;;5036115;28;20192;-83
2023/12/01 06:15:13;;;;;;;47.43;16.50;;;0.80;99.90;;;;;;5035990;28;20279;-82
2023/12/01 06:17:49;;;;;;;43.90;18.27;;;0.90;99.90;;;;;;5036205;28;20386;-82
2023/12/01 06:20:17;;;;;;;37.53;15.48;;;0.90;99.90;;;;;;5035726;28;20612;-82
2023/12/01 06:23:01;;;;;;;41.10;17.10;;;0.90;99.90;;;;;;5017777;28;20165;-82
2023/12/01 06:25:31;;;;;;;35.97;15.82;;;0.90;99.90;;;;;;5036003;28;20186;-83
2023/12/01 06:28:02;;;;;;;42.22;17.02;;;0.80;99.90;;;;;;5036041;28;20163;-82
2023/12/01 06:30:33;;;;;;;42.67;17.10;;;0.90;99.90;;;;;;5035866;28;20621;-82
2023/12/01 06:33:00;;;;;;;34.88;14.75;;;1.00;99.90;;;;;;5035646;28;20156;-82
2023/12/01 06:35:26;;;;;;;40.10;15.93;;;0.90;99.90;;;;;;5035590;28;20211;-82
2023/12/01 06:37:52;;;;;;;39.75;15.80;;;0.90;99.90;;;;;;5035180;28;20196;-82
2023/12/01 06:40:20;;;;;;;43.58;16.77;;;1.00;99.90;;;;;;5017611;28;20198;-82
2023/12/01 06:42:50;;;;;;;40.05;16.95;;;0.90;99.90;;;;;;5035624;28;20161;-82
2023/12/01 06:45:18;;;;;;;41.08;15.48;;;1.00;99.90;;;;;;5035489;28;20271;-82
2023/12/01 06:47:48;;;;;;;36.45;14.88;;;1.00;99.90;;;;;;5017980;28;20592;-82
2023/12/01 06:50:16;;;;;;;38.55;15.93;;;1.00;99.90;;;;;;5035145;28;20240;-82
2023/12/01 06:52:49;;;;;;;37.42;15.40;;;1.00;99.90;;;;;;5035200;28;20238;-82
2023/12/01 06:55:16;;;;;;;42.45;15.98;;;1.00;99.90;;;;;;5017198;28;20195;-82
2023/12/01 06:57:46;;;;;;;41.47;15.63;;;1.10;99.90;;;;;;5035258;28;20171;-82
2023/12/01 07:00:33;;;;;;;37.85;13.82;;;1.10;99.90;;;;;;5017086;28;20632;-82
2023/12/01 07:03:09;;;;;;;38.50;15.43;;;1.20;99.90;;;;;;5017402;28;20633;-83
2023/12/01 07:05:37;;;;;;;36.63;13.85;;;1.10;99.90;;;;;;5035414;28;20154;-83
2023/12/01 07:08:03;;;;;;;39.50;15.35;;;1.00;99.90;;;;;;5017248;28;20229;-82
2023/12/01 07:10:32;;;;;;;37.50;13.18;;;1.00;99.90;;;;;;5034750;28;20228;-82
2023/12/01 07:12:59;;;;;;;34.03;11.80;;;1.00;99.90;;;;;;5035445;28;20163;-83
2023/12/01 07:15:25;;;;;;;32.28;12.00;;;1.00;99.90;;;;;;5016781;28;20188;-83
2023/12/01 07:17:52;;;;;;;34.97;12.07;;;0.90;99.90;;;;;;5035159;28;20631;-82
2023/12/01 07:20:19;;;;;;;38.80;12.35;;;0.90;99.90;;;;;;5034631;28;20175;-83
2023/12/01 07:22:46;;;;;;;34.40;10.98;;;0.90;99.90;;;;;;5035033;28;20301;-82
2023/12/01 07:25:21;;;;;;;33.42;12.00;;;0.90;99.90;;;;;;5034627;28;20618;-83
2023/12/01 07:27:49;;;;;;;32.22;9.75;;;0.90;99.90;;;;;;5034616;28;20156;-82
2023/12/01 07:30:17;;;;;;;29.85;10.35;;;0.90;99.90;;;;;;5034544;28;20194;-83
2023/12/01 07:32:47;;;;;;;29.20;7.95;;;0.80;99.90;;;;;;5105464;22;20174;-83
2023/12/01 07:35:13;;;;;;;28.00;8.90;;;0.80;99.90;;;;;;5403281;22;20244;-83
2023/12/01 07:37:42;;;;;;;27.13;9.50;;;0.90;99.90;;;;;;5118529;22;20929;-83
2023/12/01 07:42:38;;;;;;;29.35;9.00;;;0.90;99.90;;;;;;5203375;22;20232;-83
2023/12/01 07:45:05;;;;;;;31.90;10.95;;;1.00;99.90;;;;;;5047752;28;20221;-84
2023/12/01 07:47:31;;;;;;;29.90;9.85;;;1.00;99.90;;;;;;5048303;28;20249;-84
2023/12/01 07:50:03;;;;;;;27.33;9.10;;;1.10;99.90;;;;;;5047484;28;20198;-84
2023/12/01 07:52:29;;;;;;;28.92;10.38;;;1.00;99.90;;;;;;5047583;28;20255;-83
2023/12/01 07:54:54;;;;;;;29.80;10.20;;;1.00;99.90;;;;;;5046866;28;20191;-83
2023/12/01 07:57:20;;;;;;;28.63;9.67;;;1.00;99.90;;;;;;5030469;28;20425;-84
2023/12/01 07:59:46;;;;;;;30.17;9.87;;;1.00;99.90;;;;;;5048348;28;20199;-83
2023/12/01 08:02:11;;;;;;;27.63;9.80;;;1.00;99.90;;;;;;5046972;28;20170;-84
2023/12/01 08:04:40;;;;;;;32.53;10.50;;;1.10;99.90;;;;;;5048277;28;20209;-83
2023/12/01 08:07:07;;;;;;;30.67;10.20;;;1.10;99.90;;;;;;5046372;28;20531;-83
2023/12/01 08:09:33;;;;;;;29.02;10.68;;;1.10;99.90;;;;;;5028036;28;20200;-83
2023/12/01 08:11:59;;;;;;;31.02;11.02;;;1.10;99.90;;;;;;5045482;28;20166;-84
2023/12/01 08:14:25;;;;;;;31.60;10.15;;;1.10;99.90;;;;;;5045833;28;20233;-84
2023/12/01 08:16:52;;;;;;;30.13;10.00;;;1.20;99.90;;;;;;5027502;28;20693;-83
2023/12/01 08:19:18;;;;;;;31.02;11.55;;;1.20;99.90;;;;;;5045463;28;20450;-83
2023/12/01 08:21:44;;;;;;;27.20;10.57;;;1.10;99.90;;;;;;5045642;28;20189;-83
2023/12/01 08:24:10;;;;;;;29.05;9.90;;;1.10;99.90;;;;;;5027314;28;20513;-83
2023/12/01 08:26:37;;;;;;;29.60;10.53;;;1.10;99.90;;;;;;5029787;28;20229;-83
2023/12/01 08:29:03;;;;;;;29.38;9.65;;;1.10;99.90;;;;;;5049260;28;20167;-84
2023/12/01 08:31:31;;;;;;;30.25;10.77;;;1.20;99.90;;;;;;5049981;28;20177;-83
2023/12/01 08:33:58;;;;;;;32.88;10.57;;;1.20;99.90;;;;;;5049165;28;20830;-83
2023/12/01 08:36:27;;;;;;;32.55;11.30;;;1.00;99.90;;;;;;5031256;28;20543;-83
2023/12/01 08:38:52;;;;;;;31.00;9.35;;;1.10;99.90;;;;;;5048664;28;20196;-83
2023/12/01 08:41:18;;;;;;;27.97;8.27;;;1.00;99.90;;;;;;5030465;28;20203;-84
2023/12/01 08:43:44;;;;;;;29.03;9.40;;;1.00;99.90;;;;;;5047756;28;20289;-83
2023/12/01 08:46:09;;;;;;;29.70;9.23;;;1.00;99.90;;;;;;5031103;28;20170;-84
2023/12/01 08:48:35;;;;;;;28.30;9.60;;;1.00;99.90;;;;;;5048685;28;20179;-83
2023/12/01 08:51:01;;;;;;;28.40;9.13;;;0.90;99.90;;;;;;5030377;28;20175;-83
2023/12/01 08:53:28;;;;;;;30.57;9.80;;;0.90;99.90;;;;;;5048033;28;20269;-83
2023/12/01 08:55:55;;;;;;;33.50;9.43;;;0.80;99.90;;;;;;5048666;28;20411;-83
2023/12/01 08:58:22;;;;;;;29.60;9.05;;;0.80;99.90;;;;;;5049058;28;20191;-83
2023/12/01 09:00:48;;;;;;;34.40;9.30;;;0.90;99.90;;;;;;5047385;28;20166;-83
2023/12/01 09:03:13;;;;;;;23.60;8.37;;;0.80;99.90;;;;;;5047043;28;20163;-83
2023/12/01 09:05:39;;;;;;;31.97;9.53;;;1.00;99.90;;;;;;5048858;28;20239;-83
2023/12/01 09:08:05;;;;;;;27.50;9.20;;;1.00;99.90;;;;;;5048720;28;20179;-83
2023/12/01 09:10:32;;;;;;;28.40;7.82;;;0.80;99.90;;;;;;5031372;28;20175;-83
2023/12/01 09:12:58;;;;;;;28.27;7.75;;;0.80;99.90;;;;;;5048487;28;20203;-83
2023/12/01 09:15:24;;;;;;;27.03;7.80;;;0.80;99.90;;;;;;5030561;28;20187;-83
2023/12/01 09:17:50;;;;;;;23.40;6.90;;;0.70;99.90;;;;;;5048951;28;20776;-83
2023/12/01 09:20:15;;;;;;;25.33;7.20;;;0.70;99.90;;;;;;5049141;28;20400;-83
2023/12/01 09:22:41;;;;;;;27.47;6.53;;;0.60;99.90;;;;;;5050276;28;20231;-83
2023/12/01 09:25:08;;;;;;;24.92;7.03;;;0.60;99.90;;;;;;5032334;28;20181;-83
2023/12/01 09:27:33;;;;;;;23.58;7.03;;;0.70;99.90;;;;;;5049778;28;20227;-83
2023/12/01 09:29:59;;;;;;;22.30;5.57;;;0.80;99.90;;;;;;5049779;28;20742;-83
2023/12/01 09:32:25;;;;;;;21.10;4.50;;;0.80;99.90;;;;;;5048904;28;20398;-83
2023/12/01 09:34:50;;;;;;;22.17;5.30;;;0.80;99.90;;;;;;5031039;28;20195;-83
2023/12/01 09:37:16;;;;;;;19.33;3.93;;;0.90;99.90;;;;;;5048465;28;20398;-83
2023/12/01 09:39:42;;;;;;;24.13;4.30;;;1.00;99.90;;;;;;5048085;28;20670;-83
2023/12/01 09:42:08;;;;;;;19.30;3.87;;;0.90;99.90;;;;;;5031909;28;20253;-83
2023/12/01 09:44:37;;;;;;;21.88;4.85;;;0.90;99.90;;;;;;5048449;28;20417;-83
2023/12/01 09:47:12;;;;;;;21.73;5.30;;;0.90;99.90;;;;;;5048577;28;20234;-83
2023/12/01 09:49:38;;;;;;;20.90;4.80;;;0.80;99.90;;;;;;5049102;28;20181;-83
2023/12/01 09:52:07;;;;;;;21.30;4.78;;;0.90;99.90;;;;;;5048835;28;20193;-83
2023/12/01 09:54:33;;;;;;;21.38;4.68;;;0.90;99.90;;;;;;5049663;28;20179;-83
2023/12/01 09:57:07;;;;;;;23.20;5.97;;;0.90;99.90;;;;;;5030646;28;20239;-83
2023/12/01 09:59:36;;;;;;;20.50;4.03;;;0.90;99.90;;;;;;5048693;28;20698;-83
2023/12/01 10:02:03;;;;;;;22.15;5.15;;;0.90;99.90;;;;;;5047897;28;20171;-83
2023/12/01 10:04:29;;;;;;;22.65;5.40;;;0.90;99.90;;;;;;5047445;28;20186;-83
2023/12/01 10:06:57;;;;;;;21.90;5.10;;;1.10;99.90;;;;;;5047571;28;20174;-83
2023/12/01 10:09:28;;;;;;;19.40;4.40;;;1.20;99.90;;;;;;5047021;28;20509;-83
2023/12/01 10:12:10;;;;;;;19.17;3.80;;;1.10;99.90;;;;;;5046570;28;20239;-83
2023/12/01 10:14:37;;;;;;;20.17;4.38;;;1.20;99.90;;;;;;5047231;28;20258;-83
2023/12/01 10:17:05;;;;;;;18.75;3.88;;;1.30;99.90;;;;;;5047828;28;20167;-83
2023/12/01 10:19:32;;;;;;;20.15;3.83;;;1.20;98.30;;;;;;5047331;28;20191;-83
2023/12/01 10:21:58;;;;;;;20.65;4.68;;;1.20;99.80;;;;;;5047378;28;20627;-83
2023/12/01 10:24:24;;;;;;;21.25;4.70;;;1.30;99.90;;;;;;5046780;28;20183;-83
2023/12/01 10:26:54;;;;;;;22.37;5.37;;;1.30;99.90;;;;;;5047761;28;20160;-82
2023/12/01 10:29:29;;;;;;;22.77;5.45;;;1.20;99.90;;;;;;5048869;28;20171;-83
2023/12/01 10:32:03;;;;;;;20.42;4.85;;;1.10;99.90;;;;;;5031036;28;20166;-83
2023/12/01 10:34:29;;;;;;;22.23;5.55;;;1.10;99.90;;;;;;5047355;28;20191;-83
2023/12/01 10:36:55;;;;;;;22.63;5.17;;;1.20;99.90;;;;;;5048451;28;20172;-83
2023/12/01 10:39:27;;;;;;;27.85;5.75;;;1.20;99.90;;;;;;5047880;28;20467;-83
2023/12/01 10:41:54;;;;;;;22.08;5.78;;;1.20;99.90;;;;;;5040778;23;20220;-83
2023/12/01 10:44:24;;;;;;;24.67;6.28;;;1.10;99.90;;;;;;5029414;28;20185;-83
2023/12/01 10:46:51;;;;;;;22.13;5.93;;;1.10;99.90;;;;;;5028261;28;20164;-83
2023/12/01 10:49:17;;;;;;;22.23;5.50;;;1.20;99.90;;;;;;5027376;28;20178;-83
2023/12/01 10:51:44;;;;;;;20.67;4.80;;;1.30;99.90;;;;;;5027935;28;20168;-83
2023/12/01 10:54:11;;;;;;;24.40;5.80;;;1.40;99.90;;;;;;5027977;28;20185;-83
2023/12/01 10:57:00;;;;;;;21.33;5.95;;;1.30;99.90;;;;;;5027376;28;20164;-82
2023/12/01 10:59:28;;;;;;;22.20;5.68;;;1.20;99.90;;;;;;5015067;28;20204;-83
2023/12/01 11:01:55;;;;;;;23.27;4.78;;;1.30;99.90;;;;;;5025033;28;20183;-83
2023/12/01 11:04:26;;;;;;;22.15;5.40;;;1.10;99.90;;;;;;5024515;28;20180;-83
2023/12/01 11:07:16;;;;;;;22.33;5.03;;;1.10;99.90;;;;;;5023135;28;20179;-83
2023/12/01 11:10:06;;;;;;;22.67;6.18;;;1.00;99.90;;;;;;5024782;28;20201;-83
2023/12/01 11:12:40;;;;;;;22.15;6.25;;;1.00;99.90;;;;;;5025621;28;20160;-83
2023/12/01 11:15:34;;;;;;;23.02;6.22;;;0.90;99.90;;;;;;5026971;28;20214;-83
2023/12/01 11:18:02;;;;;;;22.00;5.68;;;1.00;99.90;;;;;;5019524;28;20210;-83
2023/12/01 11:20:43;;;;;;;23.25;5.45;;;1.00;99.90;;;;;;5026088;28;20198;-83
2023/12/01 11:23:11;;;;;;;24.17;6.40;;;1.00;99.90;;;;;;5026543;28;20148;-83
2023/12/01 11:25:55;;;;;;;22.73;6.78;;;1.00;99.90;;;;;;5026601;28;20653;-83
2023/12/01 11:28:26;;;;;;;22.25;5.07;;;1.10;99.90;;;;;;5027044;28;20156;-83
2023/12/01 11:31:48;;;;;;;21.95;5.75;;;1.10;99.90;;;;;;5027033;28;20242;-83
2023/12/01 11:34:00;;;;;;;22.40;6.03;;;1.10;99.90;;;;;;5020153;28;20205;-83
2023/12/01 11:36:35;;;;;;;23.27;6.30;;;1.20;99.90;;;;;;5028232;28;20712;-83
2023/12/01 11:39:16;;;;;;;26.67;6.88;;;1.20;99.90;;;;;;5028025;28;20187;-83
2023/12/01 11:41:41;;;;;;;22.60;7.03;;;1.30;99.90;;;;;;5026844;28;20649;-83
2023/12/01 11:44:11;;;;;;;22.23;6.73;;;1.30;99.90;;;;;;5027773;28;20183;-84
2023/12/01 11:46:42;;;;;;;23.95;6.05;;;1.20;99.90;;;;;;5025897;28;20180;-83
2023/12/01 11:49:11;;;;;;;25.77;6.65;;;1.30;99.90;;;;;;5026299;28;20172;-83
2023/12/01 11:51:40;;;;;;;24.98;7.00;;;1.30;99.90;;;;;;5025161;28;20172;-83
2023/12/01 11:54:06;;;;;;;23.00;6.43;;;1.30;99.90;;;;;;5025210;28;20247;-83
2023/12/01 11:56:32;;;;;;;28.30;7.23;;;1.30;99.90;;;;;;5027103;28;20169;-83
2023/12/01 11:58:58;;;;;;;26.47;7.03;;;1.40;99.90;;;;;;5026349;28;20193;-83
2023/12/01 12:01:24;;;;;;;21.85;6.38;;;1.40;99.90;;;;;;5362377;22;20498;-83
2023/12/01 12:06:19;;;;;;;20.58;5.45;;;1.40;99.90;;;;;;5048015;28;20203;-83
2023/12/01 12:08:46;;;;;;;21.95;5.85;;;1.40;99.90;;;;;;5030337;28;20173;-82
2023/12/01 12:11:15;;;;;;;22.70;5.53;;;1.40;99.90;;;;;;5048584;28;20667;-83
2023/12/01 12:13:41;;;;;;;21.17;5.95;;;1.40;99.90;;;;;;5048105;28;20568;-83
2023/12/01 12:16:07;;;;;;;20.47;4.67;;;1.40;99.90;;;;;;5030676;28;20169;-83
2023/12/01 12:18:34;;;;;;;22.92;5.57;;;1.60;99.90;;;;;;5049708;28;20465;-85
2023/12/01 12:21:01;;;;;;;21.63;5.22;;;1.60;97.30;;;;;;5031874;28;20171;-83
2023/12/01 12:23:28;;;;;;;24.42;6.72;;;1.70;99.20;;;;;;5032573;28;20188;-83
2023/12/01 12:25:54;;;;;;;20.60;5.50;;;1.70;94.90;;;;;;5050304;28;20160;-83
2023/12/01 12:28:21;;;;;;;21.17;6.10;;;1.60;97.00;;;;;;5050469;28;20179;-83
2023/12/01 12:30:55;;;;;;;21.70;6.43;;;1.60;94.80;;;;;;5031657;28;20171;-83
2023/12/01 12:33:22;;;;;;;21.58;6.25;;;1.70;95.80;;;;;;5031509;28;20174;-84
2023/12/01 12:35:50;;;;;;;21.65;6.20;;;1.90;97.20;;;;;;5049308;28;20220;-83
2023/12/01 12:38:16;;;;;;;21.23;4.97;;;1.90;91.60;;;;;;5049450;28;20187;-83
2023/12/01 12:40:42;;;;;;;22.27;6.07;;;1.90;88.30;;;;;;5049577;28;20252;-83
2023/12/01 12:43:07;;;;;;;21.63;5.67;;;1.70;81.00;;;;;;5048248;28;20391;-84
2023/12/01 12:45:36;;;;;;;21.60;6.03;;;1.50;66.60;;;;;;5048958;28;20167;-83
2023/12/01 12:48:09;;;;;;;23.23;6.22;;;1.50;58.50;;;;;;5048599;28;20169;-83